createdAt,value
2022-12-04T00:01:23.273Z,47.65
2022-12-04T00:03:58.285Z,45.65
2022-12-04T00:06:26.147Z,47.20
2022-12-04T00:08:53.433Z,45.63
2022-12-04T00:11:23.840Z,48.20
2022-12-04T00:13:51.324Z,45.28
2022-12-04T00:16:21.161Z,43.17
2022-12-04T00:18:48.141Z,43.80
2022-12-04T00:21:16.292Z,44.17
2022-12-04T00:23:44.652Z,42.80
2022-12-04T00:26:17.939Z,46.03
2022-12-04T00:28:44.997Z,44.13
2022-12-04T00:31:15.556Z,44.60
2022-12-04T00:33:42.809Z,45.25
2022-12-04T00:36:12.250Z,46.15
2022-12-04T00:38:40.166Z,46.08
2022-12-04T00:41:14.825Z,47.38
2022-12-04T00:43:42.081Z,46.33
2022-12-04T00:46:09.576Z,46.58
2022-12-04T00:48:36.584Z,44.17
2022-12-04T00:51:08.958Z,46.00
2022-12-04T00:53:36.146Z,44.75
2022-12-04T00:56:09.433Z,46.45
2022-12-04T00:58:36.709Z,46.63
2022-12-04T01:01:13.329Z,45.63
2022-12-04T01:03:40.708Z,45.83
2022-12-04T01:06:08.217Z,45.45
2022-12-04T01:08:35.012Z,45.75
2022-12-04T01:11:06.918Z,45.15
2022-12-04T01:13:33.733Z,45.70
2022-12-04T01:16:00.454Z,45.97
2022-12-04T01:18:27.397Z,46.25
2022-12-04T01:20:54.220Z,44.97
2022-12-04T01:23:21.345Z,43.35
2022-12-04T01:25:57.576Z,44.65
2022-12-04T01:28:25.491Z,45.05
2022-12-04T01:31:02.788Z,43.85
2022-12-04T01:33:30.600Z,45.15
2022-12-04T01:35:58.913Z,42.90
2022-12-04T01:38:26.884Z,44.90
2022-12-04T01:40:54.602Z,44.85
2022-12-04T01:43:22.348Z,44.38
2022-12-04T01:45:52.870Z,43.08
2022-12-04T01:48:26.596Z,42.33
2022-12-04T01:50:59.099Z,42.17
2022-12-04T01:53:26.759Z,41.53
2022-12-04T01:55:53.918Z,41.33
2022-12-04T01:58:26.964Z,40.17
2022-12-04T02:00:58.552Z,40.00
2022-12-04T02:03:25.925Z,41.70
2022-12-04T02:05:52.598Z,42.53
2022-12-04T02:08:19.453Z,37.65
2022-12-04T02:11:03.606Z,36.90
2022-12-04T02:13:40.983Z,35.83
2022-12-04T02:16:24.646Z,36.95
2022-12-04T02:19:13.121Z,37.95
2022-12-04T02:21:45.775Z,33.80
2022-12-04T02:24:50.034Z,32.80
2022-12-04T02:27:39.062Z,33.88
2022-12-04T02:30:13.437Z,34.65
2022-12-04T02:33:03.385Z,34.10
2022-12-04T02:35:42.806Z,34.50
2022-12-04T02:38:23.541Z,34.95
2022-12-04T02:40:55.660Z,33.78
2022-12-04T02:43:46.949Z,32.70
2022-12-04T02:46:32.817Z,33.53
2022-12-04T02:49:03.415Z,35.63
2022-12-04T02:51:34.663Z,35.92
2022-12-04T02:54:19.730Z,36.30
2022-12-04T02:56:50.465Z,35.78
2022-12-04T02:59:23.448Z,36.53
2022-12-04T03:01:55.484Z,36.83
2022-12-04T03:04:26.067Z,36.88
2022-12-04T03:06:59.612Z,38.53
2022-12-04T03:09:44.508Z,37.95
2022-12-04T03:12:19.869Z,36.40
2022-12-04T03:15:01.508Z,34.85
2022-12-04T03:17:38.775Z,37.10
2022-12-04T03:20:11.099Z,35.45
2022-12-04T03:22:42.360Z,34.42
2022-12-04T03:25:09.824Z,33.70
2022-12-04T03:28:05.292Z,34.63
2022-12-04T03:30:39.651Z,33.63
2022-12-04T03:33:21.609Z,33.83
2022-12-04T03:36:08.747Z,34.17
2022-12-04T03:38:51.757Z,32.67
2022-12-04T03:41:48.045Z,32.92
2022-12-04T03:44:33.833Z,34.08
2022-12-04T03:47:30.054Z,36.67
2022-12-04T03:50:12.722Z,35.42
2022-12-04T03:52:45.625Z,36.50
2022-12-04T03:55:21.434Z,40.08
2022-12-04T03:57:50.365Z,35.80
2022-12-04T04:00:19.471Z,36.80
2022-12-04T04:02:55.929Z,35.97
2022-12-04T04:05:26.848Z,35.30
2022-12-04T04:08:18.712Z,35.15
2022-12-04T04:10:45.791Z,33.13
2022-12-04T04:13:34.120Z,32.50
2022-12-04T04:16:23.505Z,36.88
2022-12-04T04:19:10.966Z,34.85
2022-12-04T04:21:58.825Z,35.60
2022-12-04T04:24:36.204Z,33.83
2022-12-04T04:27:03.737Z,34.53
2022-12-04T04:29:30.592Z,35.67
2022-12-04T04:32:11.300Z,35.08
2022-12-04T04:34:56.305Z,35.08
2022-12-04T04:37:41.295Z,36.83
2022-12-04T04:40:22.164Z,35.97
2022-12-04T04:42:57.016Z,34.67
2022-12-04T04:45:32.226Z,35.72
2022-12-04T04:48:06.717Z,35.35
2022-12-04T04:50:34.956Z,33.85
2022-12-04T04:53:05.463Z,35.25
2022-12-04T04:55:34.924Z,33.55
2022-12-04T04:58:13.509Z,34.13
2022-12-04T05:00:47.355Z,35.50
2022-12-04T05:03:14.178Z,36.20
2022-12-04T05:05:40.903Z,34.60
2022-12-04T05:08:07.702Z,34.38
2022-12-04T05:10:34.488Z,33.03
2022-12-04T05:13:01.186Z,32.75
2022-12-04T05:15:27.876Z,32.83
2022-12-04T05:17:54.876Z,33.67
2022-12-04T05:20:21.554Z,31.20
2022-12-04T05:22:48.225Z,29.77
2022-12-04T05:25:14.918Z,31.05
2022-12-04T05:27:41.663Z,29.65
2022-12-04T05:30:10.449Z,31.75
2022-12-04T05:32:37.187Z,32.80
2022-12-04T05:35:10.577Z,29.40
2022-12-04T05:37:40.176Z,31.73
2022-12-04T05:40:10.162Z,29.80
2022-12-04T05:45:03.841Z,29.75
2022-12-04T05:47:30.543Z,28.42
2022-12-04T05:49:58.235Z,30.33
2022-12-04T05:52:25.242Z,29.80
2022-12-04T05:54:51.864Z,29.38
2022-12-04T05:57:18.533Z,28.08
2022-12-04T05:59:45.207Z,28.67
2022-12-04T06:02:11.941Z,29.73
2022-12-04T06:04:38.690Z,29.25
2022-12-04T06:07:05.404Z,29.27
2022-12-04T06:09:32.031Z,30.08
2022-12-04T06:11:59.085Z,30.00
2022-12-04T06:14:25.911Z,28.00
2022-12-04T06:16:52.693Z,28.08
2022-12-04T06:19:21.489Z,28.50
2022-12-04T06:21:51.393Z,30.00
2022-12-04T06:24:22.005Z,28.98
2022-12-04T06:27:18.677Z,28.30
2022-12-04T06:29:36.269Z,29.83
2022-12-04T06:32:03.180Z,29.88
2022-12-04T06:34:29.948Z,29.45
2022-12-04T06:36:56.702Z,28.38
2022-12-04T06:39:23.456Z,27.02
2022-12-04T06:41:50.200Z,28.02
2022-12-04T06:44:16.874Z,27.92
2022-12-04T06:46:47.151Z,28.92
2022-12-04T06:49:14.389Z,28.13
2022-12-04T06:51:41.174Z,27.42
2022-12-04T06:54:09.475Z,27.50
2022-12-04T06:56:36.334Z,28.08
2022-12-04T06:59:04.430Z,28.65
2022-12-04T07:01:33.938Z,27.25
2022-12-04T07:04:03.884Z,26.75
2022-12-04T07:06:36.561Z,28.05
2022-12-04T07:09:16.944Z,25.73
2022-12-04T07:11:44.706Z,27.45
2022-12-04T07:14:13.206Z,26.30
2022-12-04T07:16:42.248Z,25.25
2022-12-04T07:19:11.096Z,23.70
2022-12-04T07:21:37.921Z,22.60
2022-12-04T07:24:05.115Z,23.95
2022-12-04T07:26:31.913Z,22.98
2022-12-04T07:28:59.462Z,22.38
2022-12-04T07:31:27.899Z,21.38
2022-12-04T07:33:55.231Z,22.88
2022-12-04T07:36:23.137Z,22.88
2022-12-04T07:38:50.840Z,22.55
2022-12-04T07:41:18.913Z,22.55
2022-12-04T07:43:46.047Z,22.48
2022-12-04T07:46:17.784Z,21.48
2022-12-04T07:48:45.068Z,20.60
2022-12-04T07:51:14.913Z,21.80
2022-12-04T07:53:42.134Z,21.45
2022-12-04T07:56:11.070Z,21.30
2022-12-04T07:58:38.300Z,21.02
2022-12-04T08:01:17.468Z,20.17
2022-12-04T08:03:48.325Z,20.17
2022-12-04T08:06:18.145Z,21.40
2022-12-04T08:08:45.299Z,20.88
2022-12-04T08:11:15.308Z,19.45
2022-12-04T08:13:42.234Z,19.55
2022-12-04T08:16:10.310Z,20.52
2022-12-04T08:18:37.458Z,19.20
2022-12-04T08:21:11.584Z,19.33
2022-12-04T08:23:40.525Z,19.02
2022-12-04T08:26:07.980Z,19.40
2022-12-04T08:28:35.164Z,18.75
2022-12-04T08:31:03.899Z,17.92
2022-12-04T08:33:30.745Z,18.20
2022-12-04T08:35:57.647Z,19.25
2022-12-04T08:38:24.432Z,18.17
2022-12-04T08:40:51.226Z,17.80
2022-12-04T08:43:18.094Z,19.25
2022-12-04T08:45:44.890Z,17.52
2022-12-04T08:48:11.546Z,17.13
2022-12-04T08:50:44.820Z,17.17
2022-12-04T08:53:11.513Z,15.90
2022-12-04T08:55:38.135Z,16.88
2022-12-04T08:58:04.826Z,17.17
2022-12-04T09:00:31.790Z,16.35
2022-12-04T09:02:58.539Z,16.15
2022-12-04T09:05:25.221Z,16.55
2022-12-04T09:07:52.012Z,15.30
2022-12-04T09:10:18.878Z,15.68
2022-12-04T09:12:45.546Z,15.65
2022-12-04T09:15:12.597Z,15.50
2022-12-04T09:17:39.402Z,15.43
2022-12-04T09:20:08.158Z,15.82
2022-12-04T09:23:01.757Z,15.50
2022-12-04T09:25:22.940Z,15.05
2022-12-04T09:27:49.691Z,16.42
2022-12-04T09:30:16.380Z,16.65
2022-12-04T09:32:43.077Z,15.35
2022-12-04T09:35:10.026Z,14.82
2022-12-04T09:37:36.844Z,15.38
2022-12-04T09:40:07.556Z,15.77
2022-12-04T09:42:43.644Z,15.23
2022-12-04T09:45:25.375Z,14.65
2022-12-04T09:48:01.455Z,14.73
2022-12-04T09:50:45.322Z,15.15
2022-12-04T09:53:16.048Z,14.13
2022-12-04T09:55:47.499Z,13.88
2022-12-04T09:58:21.282Z,13.80
2022-12-04T10:00:51.312Z,13.80
2022-12-04T10:03:21.165Z,12.68
2022-12-04T10:06:16.382Z,13.45
2022-12-04T10:08:46.663Z,12.77
2022-12-04T10:11:40.441Z,13.68
2022-12-04T10:14:26.125Z,12.57
2022-12-04T10:17:27.844Z,12.10
2022-12-04T10:20:13.856Z,12.52
2022-12-04T10:23:13.418Z,12.52
2022-12-04T10:25:42.174Z,13.35
2022-12-04T10:28:26.427Z,12.57
2022-12-04T10:30:55.670Z,12.70
2022-12-04T10:33:45.736Z,13.00
2022-12-04T10:39:04.100Z,12.05
2022-12-04T10:44:00.160Z,11.37
2022-12-04T10:46:29.292Z,12.25
2022-12-04T10:48:59.913Z,11.80
2022-12-04T10:51:26.773Z,11.20
2022-12-04T10:53:55.738Z,10.90
2022-12-04T10:56:24.969Z,11.63
2022-12-04T10:59:01.835Z,9.90
2022-12-04T11:01:33.960Z,9.98
2022-12-04T11:04:09.342Z,10.32
2022-12-04T11:06:36.245Z,11.10
2022-12-04T11:09:03.753Z,10.55
2022-12-04T11:11:35.698Z,11.07
2022-12-04T11:14:06.961Z,11.30
2022-12-04T11:16:40.477Z,9.63
2022-12-04T11:19:22.377Z,9.68
2022-12-04T11:21:50.192Z,9.95
2022-12-04T11:24:29.396Z,9.98
2022-12-04T11:26:57.831Z,9.65
2022-12-04T11:29:42.183Z,9.38
2022-12-04T11:32:19.810Z,9.98
2022-12-04T11:34:46.719Z,10.27
2022-12-04T11:37:45.125Z,10.02
2022-12-04T11:40:18.871Z,10.50
2022-12-04T11:42:58.603Z,11.15
2022-12-04T11:45:25.253Z,9.48
2022-12-04T11:47:57.328Z,9.35
2022-12-04T11:50:54.699Z,10.45
2022-12-04T11:53:39.692Z,10.02
2022-12-04T11:56:19.931Z,10.40
2022-12-04T11:58:51.706Z,9.68
2022-12-04T12:01:27.228Z,10.32
2022-12-04T12:04:10.751Z,9.32
2022-12-04T12:06:58.955Z,9.77
2022-12-04T12:09:55.739Z,10.27
2022-12-04T12:12:38.205Z,9.88
2022-12-04T12:15:26.465Z,9.50
2022-12-04T12:18:08.711Z,9.65
2022-12-04T12:20:50.408Z,9.80
2022-12-04T12:23:31.040Z,9.88
2022-12-04T12:26:16.349Z,9.05
2022-12-04T12:28:49.258Z,9.60
2022-12-04T12:31:42.172Z,9.07
2022-12-04T12:34:14.489Z,8.50
2022-12-04T12:36:45.622Z,9.15
2022-12-04T12:39:29.552Z,8.88
2022-12-04T12:42:01.194Z,9.65
2022-12-04T12:44:43.149Z,9.27
2022-12-04T12:47:17.764Z,8.32
2022-12-04T12:50:10.593Z,8.68
2022-12-04T12:52:58.875Z,9.73
2022-12-04T12:55:39.838Z,9.85
2022-12-04T12:58:24.907Z,10.00
2022-12-04T13:01:16.531Z,10.98
2022-12-04T13:03:49.076Z,11.32
2022-12-04T13:06:25.101Z,11.82
2022-12-04T13:09:25.546Z,10.68
2022-12-04T13:11:58.715Z,11.85
2022-12-04T13:14:25.844Z,11.43
2022-12-04T13:16:59.738Z,12.80
2022-12-04T13:19:34.695Z,12.60
2022-12-04T13:22:10.661Z,12.45
2022-12-04T13:24:56.529Z,12.32
2022-12-04T13:27:37.975Z,12.75
2022-12-04T13:30:21.605Z,12.52
2022-12-04T13:32:48.356Z,12.57
2022-12-04T13:35:39.966Z,14.43
2022-12-04T13:38:15.659Z,13.75
2022-12-04T13:40:51.728Z,13.88
2022-12-04T13:43:24.556Z,12.88
2022-12-04T13:45:54.266Z,12.75
2022-12-04T13:48:36.991Z,13.35
2022-12-04T13:51:14.324Z,13.10
2022-12-04T13:53:43.508Z,12.50
2022-12-04T13:56:26.404Z,13.88
2022-12-04T13:59:25.424Z,14.10
2022-12-04T14:01:57.483Z,14.02
2022-12-04T14:04:25.651Z,13.98
2022-12-04T14:06:54.332Z,13.55
2022-12-04T14:09:53.480Z,14.95
2022-12-04T14:12:26.964Z,14.20
2022-12-04T14:15:00.574Z,13.65
2022-12-04T14:17:30.887Z,13.38
2022-12-04T14:20:07.318Z,13.65
2022-12-04T14:22:37.501Z,13.38
2022-12-04T14:25:29.146Z,13.88
2022-12-04T14:27:55.997Z,13.80
2022-12-04T14:30:31.370Z,14.50
2022-12-04T14:33:19.008Z,13.82
2022-12-04T14:36:02.778Z,14.45
2022-12-04T14:38:29.748Z,14.52
2022-12-04T14:40:58.193Z,15.80
2022-12-04T14:43:28.313Z,16.05
2022-12-04T14:48:58.281Z,15.90
2022-12-04T14:51:35.675Z,16.05
2022-12-04T14:54:17.721Z,16.20
2022-12-04T14:57:14.171Z,14.23
2022-12-04T14:59:53.599Z,16.08
2022-12-04T15:02:34.727Z,17.63
2022-12-04T15:05:02.727Z,17.13
2022-12-04T15:07:31.804Z,17.67
2022-12-04T15:10:19.428Z,18.20
2022-12-04T15:12:52.979Z,17.40
2022-12-04T15:15:26.101Z,16.52
2022-12-04T15:18:17.114Z,17.88
2022-12-04T15:20:43.833Z,18.17
2022-12-04T15:23:16.563Z,18.15
2022-12-04T15:25:51.708Z,18.38
2022-12-04T15:28:24.125Z,18.70
2022-12-04T15:30:52.732Z,18.23
2022-12-04T15:33:34.376Z,19.48
2022-12-04T15:36:05.586Z,18.27
2022-12-04T15:38:32.692Z,17.90
2022-12-04T15:41:00.834Z,17.20
2022-12-04T15:43:29.443Z,18.05
2022-12-04T15:45:57.123Z,16.52
2022-12-04T15:48:29.685Z,18.15
2022-12-04T15:51:03.639Z,17.90
2022-12-04T15:53:37.570Z,18.27
2022-12-04T15:56:08.524Z,18.45
2022-12-04T15:58:40.425Z,17.65
2022-12-04T16:01:10.701Z,19.45
2022-12-04T16:03:47.078Z,17.85
2022-12-04T16:06:24.172Z,18.17
2022-12-04T16:08:58.075Z,18.40
2022-12-04T16:11:30.766Z,16.98
2022-12-04T16:14:23.878Z,17.35
2022-12-04T16:16:52.850Z,18.80
2022-12-04T16:19:33.378Z,17.75
2022-12-04T16:22:03.602Z,18.40
2022-12-04T16:24:30.734Z,18.40
2022-12-04T16:27:00.245Z,18.65
2022-12-04T16:29:27.165Z,18.83
2022-12-04T16:31:57.170Z,18.63
2022-12-04T16:34:27.991Z,18.98
2022-12-04T16:36:54.627Z,19.20
2022-12-04T16:39:21.460Z,18.83
2022-12-04T16:41:48.209Z,18.40
2022-12-04T16:44:16.432Z,18.38
2022-12-04T16:46:43.648Z,18.35
2022-12-04T16:49:13.852Z,19.27
2022-12-04T16:51:49.643Z,18.88
2022-12-04T16:54:16.620Z,18.75
2022-12-04T16:56:46.438Z,18.42
2022-12-04T16:59:13.274Z,19.23
2022-12-04T17:01:46.545Z,18.33
2022-12-04T17:04:13.580Z,18.90
2022-12-04T17:06:40.653Z,18.10
2022-12-04T17:09:08.123Z,18.52
2022-12-04T17:11:34.806Z,20.42
2022-12-04T17:14:06.891Z,19.92
2022-12-04T17:16:38.483Z,20.20
2022-12-04T17:19:05.324Z,19.35
2022-12-04T17:21:32.098Z,20.58
2022-12-04T17:23:58.813Z,20.63
2022-12-04T17:26:26.305Z,19.77
2022-12-04T17:28:53.235Z,19.45
2022-12-04T17:31:22.789Z,20.02
2022-12-04T17:33:50.213Z,20.58
2022-12-04T17:36:25.845Z,20.67
2022-12-04T17:38:57.514Z,19.20
2022-12-04T17:41:24.256Z,18.85
2022-12-04T17:43:51.089Z,19.65
2022-12-04T17:46:21.861Z,18.80
2022-12-04T17:48:48.817Z,19.60
2022-12-04T17:51:22.816Z,21.00
2022-12-04T17:53:49.745Z,19.48
2022-12-04T17:56:19.285Z,20.25
2022-12-04T17:58:46.870Z,21.05
2022-12-04T18:01:16.904Z,20.42
2022-12-04T18:06:17.128Z,18.63
2022-12-04T18:08:49.846Z,19.17
2022-12-04T18:11:20.522Z,19.83
2022-12-04T18:13:49.445Z,19.98
2022-12-04T18:16:16.266Z,20.75
2022-12-04T18:18:46.611Z,19.98
2022-12-04T18:21:14.524Z,21.45
2022-12-04T18:23:45.664Z,22.33
2022-12-04T18:26:14.353Z,22.52
2022-12-04T18:28:42.057Z,21.90
2022-12-04T18:31:09.869Z,20.45
2022-12-04T18:33:39.120Z,21.65
2022-12-04T18:36:06.804Z,22.17
2022-12-04T18:38:33.645Z,22.10
2022-12-04T18:41:05.908Z,22.98
2022-12-04T18:43:37.916Z,22.10
2022-12-04T18:46:08.044Z,22.48
2022-12-04T18:48:36.022Z,22.88
2022-12-04T18:51:14.536Z,23.63
2022-12-04T18:53:41.441Z,21.85
2022-12-04T18:56:08.091Z,23.17
2022-12-04T18:58:34.799Z,22.63
2022-12-04T19:01:09.480Z,23.00
2022-12-04T19:03:37.034Z,22.42
2022-12-04T19:06:04.783Z,22.23
2022-12-04T19:08:34.297Z,23.15
2022-12-04T19:11:21.533Z,23.30
2022-12-04T19:13:48.259Z,23.15
2022-12-04T19:16:17.505Z,23.42
2022-12-04T19:18:47.705Z,21.77
2022-12-04T19:23:42.759Z,20.52
2022-12-04T19:26:09.527Z,22.27
2022-12-04T19:28:36.523Z,22.88
2022-12-04T19:31:03.643Z,22.63
2022-12-04T19:33:30.455Z,24.23
2022-12-04T19:36:03.216Z,23.88
2022-12-04T19:38:31.447Z,23.92
2022-12-04T19:41:22.953Z,23.95
2022-12-04T19:43:52.871Z,25.42
2022-12-04T19:46:26.230Z,24.75
2022-12-04T19:48:58.724Z,23.13
2022-12-04T19:51:26.035Z,22.88
2022-12-04T19:53:54.200Z,23.80
2022-12-04T19:56:24.505Z,25.60
2022-12-04T19:58:52.615Z,24.67
2022-12-04T20:01:24.083Z,25.30
2022-12-04T20:03:51.340Z,25.80
2022-12-04T20:06:20.723Z,25.83
2022-12-04T20:08:52.799Z,24.17
2022-12-04T20:11:19.611Z,22.92
2022-12-04T20:13:48.547Z,23.30
2022-12-04T20:16:18.096Z,21.60
2022-12-04T20:18:45.310Z,23.17
2022-12-04T20:21:12.989Z,22.50
2022-12-04T20:23:49.943Z,22.63
2022-12-04T20:26:26.054Z,21.35
2022-12-04T20:28:54.827Z,22.48
2022-12-04T20:31:41.760Z,21.27
2022-12-04T20:34:12.106Z,21.58
2022-12-04T20:36:41.773Z,22.00
2022-12-04T20:39:09.754Z,21.70
2022-12-04T20:41:36.716Z,19.75
2022-12-04T20:44:06.413Z,18.65
2022-12-04T20:46:38.320Z,19.73
2022-12-04T20:49:08.571Z,17.65
2022-12-04T20:51:37.840Z,21.50
2022-12-04T20:54:05.662Z,21.30
2022-12-04T20:56:37.236Z,20.10
2022-12-04T20:59:07.652Z,20.35
2022-12-04T21:01:35.472Z,19.83
2022-12-04T21:04:02.821Z,20.00
2022-12-04T21:06:38.122Z,19.90
2022-12-04T21:09:16.787Z,20.42
2022-12-04T21:11:49.360Z,20.00
2022-12-04T21:14:43.878Z,20.30
2022-12-04T21:17:16.629Z,18.48
2022-12-04T21:19:43.594Z,18.67
2022-12-04T21:22:10.279Z,20.08
2022-12-04T21:24:39.224Z,18.42
2022-12-04T21:27:09.820Z,20.02
2022-12-04T21:29:39.677Z,19.63
2022-12-04T21:32:07.242Z,18.58
2022-12-04T21:34:33.979Z,18.08
2022-12-04T21:37:00.863Z,18.23
2022-12-04T21:39:27.564Z,17.38
2022-12-04T21:42:26.606Z,17.48
2022-12-04T21:44:53.311Z,19.60
2022-12-04T21:47:20.497Z,17.25
2022-12-04T21:49:47.780Z,18.95
2022-12-04T21:52:18.581Z,19.10
2022-12-04T21:54:48.325Z,20.05
2022-12-04T21:57:15.019Z,19.23
2022-12-04T21:59:41.677Z,19.40
2022-12-04T22:02:10.018Z,18.67
2022-12-04T22:04:36.711Z,20.30
2022-12-04T22:07:03.545Z,19.23
2022-12-04T22:09:30.283Z,19.67
2022-12-04T22:11:56.940Z,18.63
2022-12-04T22:14:23.588Z,16.88
2022-12-04T22:16:51.892Z,16.85
2022-12-04T22:19:18.669Z,16.85
2022-12-04T22:21:45.491Z,16.45
2022-12-04T22:24:12.264Z,17.90
2022-12-04T22:26:39.144Z,17.77
2022-12-04T22:29:33.725Z,17.90
2022-12-04T22:31:52.944Z,17.15
2022-12-04T22:34:19.676Z,17.80
2022-12-04T22:36:48.851Z,18.80
2022-12-04T22:39:15.506Z,20.13
2022-12-04T22:41:42.185Z,18.67
2022-12-04T22:44:08.982Z,18.33
2022-12-04T22:46:35.702Z,17.45
2022-12-04T22:49:02.400Z,17.00
2022-12-04T22:51:29.236Z,16.48
2022-12-04T22:53:57.956Z,17.25
2022-12-04T22:56:30.689Z,15.88
2022-12-04T22:58:58.296Z,16.42
2022-12-04T23:01:27.856Z,15.02
2022-12-04T23:03:54.828Z,13.85
2022-12-04T23:06:23.433Z,14.48
2022-12-04T23:08:55.923Z,14.27
2022-12-04T23:11:23.868Z,14.38
2022-12-04T23:13:56.012Z,14.85
2022-12-04T23:16:24.383Z,15.50
2022-12-04T23:18:51.409Z,15.60
2022-12-04T23:21:20.116Z,16.90
2022-12-04T23:23:47.679Z,16.65
2022-12-04T23:26:17.843Z,15.20
2022-12-04T23:31:11.504Z,16.70
2022-12-04T23:33:39.365Z,16.50
2022-12-04T23:36:07.528Z,16.20
2022-12-04T23:38:35.750Z,16.63
2022-12-04T23:41:05.438Z,17.13
2022-12-04T23:43:32.691Z,18.40
2022-12-04T23:45:59.395Z,17.08
2022-12-04T23:48:26.901Z,18.33
2022-12-04T23:50:54.032Z,18.88
2022-12-04T23:53:21.158Z,19.98
2022-12-04T23:56:09.918Z,20.27
2022-12-04T23:58:37.530Z,18.92
